sensor_id;sensor_type;location;lat;lon;timestamp;temperature;humidity
13446;DHT22;6795;51.232;3.764;2023-08-31T00:01:50;10.50;99.90
13446;DHT22;6795;51.232;3.764;2023-08-31T00:04:19;10.40;99.90
13446;DHT22;6795;51.232;3.764;2023-08-31T00:06:48;10.30;99.90
13446;DHT22;6795;51.232;3.764;2023-08-31T00:09:17;10.30;99.90
13446;DHT22;6795;51.232;3.764;2023-08-31T00:11:46;10.20;99.90
13446;DHT22;6795;51.232;3.764;2023-08-31T00:14:18;10.10;99.90
13446;DHT22;6795;51.232;3.764;2023-08-31T00:16:47;10.00;99.90
13446;DHT22;6795;51.232;3.764;2023-08-31T00:19:18;10.00;99.90
13446;DHT22;6795;51.232;3.764;2023-08-31T00:21:46;10.00;99.90
13446;DHT22;6795;51.232;3.764;2023-08-31T00:24:17;10.40;99.90
13446;DHT22;6795;51.232;3.764;2023-08-31T00:26:48;10.40;99.90
13446;DHT22;6795;51.232;3.764;2023-08-31T00:29:18;10.50;99.90
13446;DHT22;6795;51.232;3.764;2023-08-31T00:31:47;10.60;99.90
13446;DHT22;6795;51.232;3.764;2023-08-31T00:34:18;10.70;99.90
13446;DHT22;6795;51.232;3.764;2023-08-31T00:36:47;10.90;99.90
13446;DHT22;6795;51.232;3.764;2023-08-31T00:39:16;11.20;99.90
13446;DHT22;6795;51.232;3.764;2023-08-31T00:41:48;11.30;99.90
13446;DHT22;6795;51.232;3.764;2023-08-31T00:44:17;11.30;99.90
13446;DHT22;6795;51.232;3.764;2023-08-31T00:46:47;11.20;99.90
13446;DHT22;6795;51.232;3.764;2023-08-31T00:49:16;11.20;99.90
13446;DHT22;6795;51.232;3.764;2023-08-31T00:51:45;11.30;99.90
13446;DHT22;6795;51.232;3.764;2023-08-31T00:54:19;11.30;99.90
13446;DHT22;6795;51.232;3.764;2023-08-31T00:56:52;11.30;99.90
13446;DHT22;6795;51.232;3.764;2023-08-31T00:59:20;11.20;99.90
13446;DHT22;6795;51.232;3.764;2023-08-31T01:01:57;11.20;99.90
13446;DHT22;6795;51.232;3.764;2023-08-31T01:04:38;11.20;99.90
13446;DHT22;6795;51.232;3.764;2023-08-31T01:07:19;11.10;99.90
13446;DHT22;6795;51.232;3.764;2023-08-31T01:09:57;11.00;99.90
13446;DHT22;6795;51.232;3.764;2023-08-31T01:12:38;11.00;99.90
13446;DHT22;6795;51.232;3.764;2023-08-31T01:15:11;11.10;99.90
13446;DHT22;6795;51.232;3.764;2023-08-31T01:17:46;11.10;99.90
13446;DHT22;6795;51.232;3.764;2023-08-31T01:20:21;11.10;99.90
13446;DHT22;6795;51.232;3.764;2023-08-31T01:23:00;11.20;99.90
13446;DHT22;6795;51.232;3.764;2023-08-31T01:25:34;11.20;99.90
13446;DHT22;6795;51.232;3.764;2023-08-31T01:28:03;11.20;99.90
13446;DHT22;6795;51.232;3.764;2023-08-31T01:30:31;11.20;99.90
13446;DHT22;6795;51.232;3.764;2023-08-31T01:33:00;11.20;99.90
13446;DHT22;6795;51.232;3.764;2023-08-31T01:35:34;11.20;99.90
13446;DHT22;6795;51.232;3.764;2023-08-31T01:38:06;11.20;99.90
13446;DHT22;6795;51.232;3.764;2023-08-31T01:40:42;11.20;99.90
13446;DHT22;6795;51.232;3.764;2023-08-31T01:43:12;11.30;99.90
13446;DHT22;6795;51.232;3.764;2023-08-31T01:45:42;11.30;99.90
13446;DHT22;6795;51.232;3.764;2023-08-31T01:48:13;11.20;99.90
13446;DHT22;6795;51.232;3.764;2023-08-31T01:50:42;11.30;99.90
13446;DHT22;6795;51.232;3.764;2023-08-31T01:53:11;11.40;99.90
13446;DHT22;6795;51.232;3.764;2023-08-31T01:55:41;11.40;99.90
13446;DHT22;6795;51.232;3.764;2023-08-31T01:58:10;11.40;99.90
13446;DHT22;6795;51.232;3.764;2023-08-31T02:00:38;11.30;99.90
13446;DHT22;6795;51.232;3.764;2023-08-31T02:03:06;11.30;99.90
13446;DHT22;6795;51.232;3.764;2023-08-31T02:05:35;11.30;99.90
13446;DHT22;6795;51.232;3.764;2023-08-31T02:08:04;11.40;99.90
13446;DHT22;6795;51.232;3.764;2023-08-31T02:10:32;11.40;99.90
13446;DHT22;6795;51.232;3.764;2023-08-31T02:13:02;11.40;99.90
13446;DHT22;6795;51.232;3.764;2023-08-31T02:15:33;11.40;99.90
13446;DHT22;6795;51.232;3.764;2023-08-31T02:18:01;11.30;99.90
13446;DHT22;6795;51.232;3.764;2023-08-31T02:20:30;11.30;99.90
13446;DHT22;6795;51.232;3.764;2023-08-31T02:22:59;11.30;99.90
13446;DHT22;6795;51.232;3.764;2023-08-31T02:25:27;11.30;99.90
13446;DHT22;6795;51.232;3.764;2023-08-31T02:27:56;11.30;99.90
13446;DHT22;6795;51.232;3.764;2023-08-31T02:30:26;11.20;99.90
13446;DHT22;6795;51.232;3.764;2023-08-31T02:32:54;11.30;99.90
13446;DHT22;6795;51.232;3.764;2023-08-31T02:35:23;11.20;99.90
13446;DHT22;6795;51.232;3.764;2023-08-31T02:37:51;11.20;99.90
13446;DHT22;6795;51.232;3.764;2023-08-31T02:40:20;11.10;99.90
13446;DHT22;6795;51.232;3.764;2023-08-31T02:42:53;11.10;99.90
13446;DHT22;6795;51.232;3.764;2023-08-31T02:45:21;11.10;99.90
13446;DHT22;6795;51.232;3.764;2023-08-31T02:47:51;11.10;99.90
13446;DHT22;6795;51.232;3.764;2023-08-31T02:50:19;11.00;99.90
13446;DHT22;6795;51.232;3.764;2023-08-31T02:52:48;11.00;99.90
13446;DHT22;6795;51.232;3.764;2023-08-31T02:55:16;11.00;99.90
13446;DHT22;6795;51.232;3.764;2023-08-31T02:57:44;11.10;99.90
13446;DHT22;6795;51.232;3.764;2023-08-31T03:00:13;11.10;99.90
13446;DHT22;6795;51.232;3.764;2023-08-31T03:02:42;11.00;99.90
13446;DHT22;6795;51.232;3.764;2023-08-31T03:05:13;11.00;99.90
13446;DHT22;6795;51.232;3.764;2023-08-31T03:07:41;11.10;99.90
13446;DHT22;6795;51.232;3.764;2023-08-31T03:10:10;11.10;99.90
13446;DHT22;6795;51.232;3.764;2023-08-31T03:12:39;11.20;99.90
13446;DHT22;6795;51.232;3.764;2023-08-31T03:15:08;11.20;99.90
13446;DHT22;6795;51.232;3.764;2023-08-31T03:17:36;11.30;99.90
13446;DHT22;6795;51.232;3.764;2023-08-31T03:20:06;11.40;99.90
13446;DHT22;6795;51.232;3.764;2023-08-31T03:22:36;11.50;99.90
13446;DHT22;6795;51.232;3.764;2023-08-31T03:25:05;11.50;99.90
13446;DHT22;6795;51.232;3.764;2023-08-31T03:27:33;11.60;99.90
13446;DHT22;6795;51.232;3.764;2023-08-31T03:30:03;11.70;99.90
13446;DHT22;6795;51.232;3.764;2023-08-31T03:32:31;11.80;99.90
13446;DHT22;6795;51.232;3.764;2023-08-31T03:35:02;11.80;99.90
13446;DHT22;6795;51.232;3.764;2023-08-31T03:37:31;11.80;99.90
13446;DHT22;6795;51.232;3.764;2023-08-31T03:40:02;11.90;99.90
13446;DHT22;6795;51.232;3.764;2023-08-31T03:42:31;11.90;99.90
13446;DHT22;6795;51.232;3.764;2023-08-31T03:45:00;11.90;99.90
13446;DHT22;6795;51.232;3.764;2023-08-31T03:47:30;11.90;99.90
13446;DHT22;6795;51.232;3.764;2023-08-31T03:49:59;12.00;99.90
13446;DHT22;6795;51.232;3.764;2023-08-31T03:52:27;12.00;99.90
13446;DHT22;6795;51.232;3.764;2023-08-31T03:54:55;12.00;99.90
13446;DHT22;6795;51.232;3.764;2023-08-31T03:57:25;12.00;99.90
13446;DHT22;6795;51.232;3.764;2023-08-31T03:59:54;12.10;99.90
13446;DHT22;6795;51.232;3.764;2023-08-31T04:02:21;12.20;99.90
13446;DHT22;6795;51.232;3.764;2023-08-31T04:04:50;12.20;99.90
13446;DHT22;6795;51.232;3.764;2023-08-31T04:07:18;12.20;99.90
13446;DHT22;6795;51.232;3.764;2023-08-31T04:09:47;12.20;99.90
13446;DHT22;6795;51.232;3.764;2023-08-31T04:12:15;12.20;99.90
13446;DHT22;6795;51.232;3.764;2023-08-31T04:14:45;12.10;99.90
13446;DHT22;6795;51.232;3.764;2023-08-31T04:17:13;12.10;99.90
13446;DHT22;6795;51.232;3.764;2023-08-31T04:19:41;12.10;99.90
13446;DHT22;6795;51.232;3.764;2023-08-31T04:22:10;12.00;99.90
13446;DHT22;6795;51.232;3.764;2023-08-31T04:24:38;11.90;99.90
13446;DHT22;6795;51.232;3.764;2023-08-31T04:27:07;12.00;99.90
13446;DHT22;6795;51.232;3.764;2023-08-31T04:29:35;11.90;99.90
13446;DHT22;6795;51.232;3.764;2023-08-31T04:32:05;12.00;99.90
13446;DHT22;6795;51.232;3.764;2023-08-31T04:34:34;12.00;99.90
13446;DHT22;6795;51.232;3.764;2023-08-31T04:37:03;12.00;99.90
13446;DHT22;6795;51.232;3.764;2023-08-31T04:39:31;12.00;99.90
13446;DHT22;6795;51.232;3.764;2023-08-31T04:41:59;12.00;99.90
13446;DHT22;6795;51.232;3.764;2023-08-31T04:44:29;12.10;99.90
13446;DHT22;6795;51.232;3.764;2023-08-31T04:46:57;12.10;99.90
13446;DHT22;6795;51.232;3.764;2023-08-31T04:49:27;12.00;99.90
13446;DHT22;6795;51.232;3.764;2023-08-31T04:51:56;12.10;99.90
13446;DHT22;6795;51.232;3.764;2023-08-31T04:54:24;12.20;99.90
13446;DHT22;6795;51.232;3.764;2023-08-31T04:56:53;12.20;99.90
13446;DHT22;6795;51.232;3.764;2023-08-31T04:59:21;12.20;99.90
13446;DHT22;6795;51.232;3.764;2023-08-31T05:01:50;12.20;99.90
13446;DHT22;6795;51.232;3.764;2023-08-31T05:04:18;12.10;99.90
13446;DHT22;6795;51.232;3.764;2023-08-31T05:06:48;12.20;99.90
13446;DHT22;6795;51.232;3.764;2023-08-31T05:09:16;12.10;99.90
13446;DHT22;6795;51.232;3.764;2023-08-31T05:11:46;12.10;99.90
13446;DHT22;6795;51.232;3.764;2023-08-31T05:14:14;12.20;99.90
13446;DHT22;6795;51.232;3.764;2023-08-31T05:16:43;12.10;99.90
13446;DHT22;6795;51.232;3.764;2023-08-31T05:19:11;12.10;99.90
13446;DHT22;6795;51.232;3.764;2023-08-31T05:21:40;12.10;99.90
13446;DHT22;6795;51.232;3.764;2023-08-31T05:24:09;12.20;99.90
13446;DHT22;6795;51.232;3.764;2023-08-31T05:26:38;12.20;99.90
13446;DHT22;6795;51.232;3.764;2023-08-31T05:29:08;12.10;99.90
13446;DHT22;6795;51.232;3.764;2023-08-31T05:31:36;12.10;99.90
13446;DHT22;6795;51.232;3.764;2023-08-31T05:34:05;12.20;99.90
13446;DHT22;6795;51.232;3.764;2023-08-31T05:36:33;12.20;99.90
13446;DHT22;6795;51.232;3.764;2023-08-31T05:39:02;12.20;99.90
13446;DHT22;6795;51.232;3.764;2023-08-31T05:41:32;12.20;99.90
13446;DHT22;6795;51.232;3.764;2023-08-31T05:44:01;12.20;99.90
13446;DHT22;6795;51.232;3.764;2023-08-31T05:46:30;12.20;99.90
13446;DHT22;6795;51.232;3.764;2023-08-31T05:48:59;12.30;99.90
13446;DHT22;6795;51.232;3.764;2023-08-31T05:51:27;12.60;99.90
13446;DHT22;6795;51.232;3.764;2023-08-31T05:53:55;12.80;99.90
13446;DHT22;6795;51.232;3.764;2023-08-31T05:56:24;13.00;99.90
13446;DHT22;6795;51.232;3.764;2023-08-31T05:58:53;13.20;99.90
13446;DHT22;6795;51.232;3.764;2023-08-31T06:01:23;13.40;99.90
13446;DHT22;6795;51.232;3.764;2023-08-31T06:03:51;13.60;99.90
13446;DHT22;6795;51.232;3.764;2023-08-31T06:06:20;13.70;99.90
13446;DHT22;6795;51.232;3.764;2023-08-31T06:08:48;14.00;99.90
13446;DHT22;6795;51.232;3.764;2023-08-31T06:11:17;14.10;99.90
13446;DHT22;6795;51.232;3.764;2023-08-31T06:13:45;14.20;99.90
13446;DHT22;6795;51.232;3.764;2023-08-31T06:16:15;14.30;99.90
13446;DHT22;6795;51.232;3.764;2023-08-31T06:18:43;14.50;99.90
13446;DHT22;6795;51.232;3.764;2023-08-31T06:21:11;14.60;99.90
13446;DHT22;6795;51.232;3.764;2023-08-31T06:23:40;14.70;99.90
13446;DHT22;6795;51.232;3.764;2023-08-31T06:26:08;14.80;99.90
13446;DHT22;6795;51.232;3.764;2023-08-31T06:28:37;14.90;99.90
13446;DHT22;6795;51.232;3.764;2023-08-31T06:31:06;15.20;99.90
13446;DHT22;6795;51.232;3.764;2023-08-31T06:33:36;15.50;99.90
13446;DHT22;6795;51.232;3.764;2023-08-31T06:36:05;15.60;99.90
13446;DHT22;6795;51.232;3.764;2023-08-31T06:38:34;15.80;99.90
13446;DHT22;6795;51.232;3.764;2023-08-31T06:41:02;16.00;99.90
13446;DHT22;6795;51.232;3.764;2023-08-31T06:43:31;16.10;99.90
13446;DHT22;6795;51.232;3.764;2023-08-31T06:45:59;16.00;99.90
13446;DHT22;6795;51.232;3.764;2023-08-31T06:48:49;15.90;99.90
13446;DHT22;6795;51.232;3.764;2023-08-31T06:51:17;16.00;99.90
13446;DHT22;6795;51.232;3.764;2023-08-31T06:53:48;16.00;99.90
13446;DHT22;6795;51.232;3.764;2023-08-31T06:56:17;16.20;99.90
13446;DHT22;6795;51.232;3.764;2023-08-31T06:58:45;16.50;99.90
13446;DHT22;6795;51.232;3.764;2023-08-31T07:01:14;17.00;99.90
13446;DHT22;6795;51.232;3.764;2023-08-31T07:03:43;17.30;99.90
13446;DHT22;6795;51.232;3.764;2023-08-31T07:06:14;17.30;99.90
13446;DHT22;6795;51.232;3.764;2023-08-31T07:08:43;17.40;99.90
13446;DHT22;6795;51.232;3.764;2023-08-31T07:11:12;17.50;99.90
13446;DHT22;6795;51.232;3.764;2023-08-31T07:13:40;17.50;99.90
13446;DHT22;6795;51.232;3.764;2023-08-31T07:16:09;17.40;99.90
13446;DHT22;6795;51.232;3.764;2023-08-31T07:18:37;17.50;99.90
13446;DHT22;6795;51.232;3.764;2023-08-31T07:21:06;17.80;99.90
13446;DHT22;6795;51.232;3.764;2023-08-31T07:23:39;17.80;99.90
13446;DHT22;6795;51.232;3.764;2023-08-31T07:26:07;17.80;99.90
13446;DHT22;6795;51.232;3.764;2023-08-31T07:28:36;18.00;99.90
13446;DHT22;6795;51.232;3.764;2023-08-31T07:31:05;18.40;99.90
13446;DHT22;6795;51.232;3.764;2023-08-31T07:33:38;18.70;99.90
13446;DHT22;6795;51.232;3.764;2023-08-31T07:36:06;18.60;99.90
13446;DHT22;6795;51.232;3.764;2023-08-31T07:38:35;18.90;99.90
13446;DHT22;6795;51.232;3.764;2023-08-31T07:41:05;19.10;99.90
13446;DHT22;6795;51.232;3.764;2023-08-31T07:43:33;19.20;99.90
13446;DHT22;6795;51.232;3.764;2023-08-31T07:46:02;19.30;99.90
13446;DHT22;6795;51.232;3.764;2023-08-31T07:48:30;19.70;99.90
13446;DHT22;6795;51.232;3.764;2023-08-31T07:50:58;19.80;99.90
13446;DHT22;6795;51.232;3.764;2023-08-31T07:53:27;19.80;99.90
13446;DHT22;6795;51.232;3.764;2023-08-31T07:55:56;19.80;99.90
13446;DHT22;6795;51.232;3.764;2023-08-31T07:58:26;19.90;99.90
13446;DHT22;6795;51.232;3.764;2023-08-31T08:00:55;19.90;99.90
13446;DHT22;6795;51.232;3.764;2023-08-31T08:03:24;20.00;99.90
13446;DHT22;6795;51.232;3.764;2023-08-31T08:05:53;20.00;99.90
13446;DHT22;6795;51.232;3.764;2023-08-31T08:08:21;20.40;99.90
13446;DHT22;6795;51.232;3.764;2023-08-31T08:10:52;20.50;99.90
13446;DHT22;6795;51.232;3.764;2023-08-31T08:13:20;20.40;99.90
13446;DHT22;6795;51.232;3.764;2023-08-31T08:15:50;20.80;99.90
13446;DHT22;6795;51.232;3.764;2023-08-31T08:18:19;21.00;99.90
13446;DHT22;6795;51.232;3.764;2023-08-31T08:20:47;20.90;99.90
13446;DHT22;6795;51.232;3.764;2023-08-31T08:23:16;20.80;99.90
13446;DHT22;6795;51.232;3.764;2023-08-31T08:25:45;20.70;99.90
13446;DHT22;6795;51.232;3.764;2023-08-31T08:28:13;21.00;99.90
13446;DHT22;6795;51.232;3.764;2023-08-31T08:30:41;21.40;99.90
13446;DHT22;6795;51.232;3.764;2023-08-31T08:33:11;21.20;99.90
13446;DHT22;6795;51.232;3.764;2023-08-31T08:35:40;21.30;99.90
13446;DHT22;6795;51.232;3.764;2023-08-31T08:38:09;21.30;99.90
13446;DHT22;6795;51.232;3.764;2023-08-31T08:40:37;21.60;99.90
13446;DHT22;6795;51.232;3.764;2023-08-31T08:43:07;21.90;99.90
13446;DHT22;6795;51.232;3.764;2023-08-31T08:45:37;22.10;99.90
13446;DHT22;6795;51.232;3.764;2023-08-31T08:48:10;22.30;99.90
13446;DHT22;6795;51.232;3.764;2023-08-31T08:50:40;22.30;99.90
13446;DHT22;6795;51.232;3.764;2023-08-31T08:53:08;22.50;99.90
13446;DHT22;6795;51.232;3.764;2023-08-31T08:55:38;22.80;99.90
13446;DHT22;6795;51.232;3.764;2023-08-31T08:58:06;23.00;99.90
13446;DHT22;6795;51.232;3.764;2023-08-31T09:00:35;23.20;99.90
13446;DHT22;6795;51.232;3.764;2023-08-31T09:03:04;23.20;99.90
13446;DHT22;6795;51.232;3.764;2023-08-31T09:05:34;23.60;99.90
13446;DHT22;6795;51.232;3.764;2023-08-31T09:08:04;23.60;99.90
13446;DHT22;6795;51.232;3.764;2023-08-31T09:10:35;23.60;99.90
13446;DHT22;6795;51.232;3.764;2023-08-31T09:13:08;23.40;99.90
13446;DHT22;6795;51.232;3.764;2023-08-31T09:15:39;23.20;99.90
13446;DHT22;6795;51.232;3.764;2023-08-31T09:18:12;23.50;99.90
13446;DHT22;6795;51.232;3.764;2023-08-31T09:20:47;23.20;99.90
13446;DHT22;6795;51.232;3.764;2023-08-31T09:23:18;23.20;99.90
13446;DHT22;6795;51.232;3.764;2023-08-31T09:25:48;23.10;99.90
13446;DHT22;6795;51.232;3.764;2023-08-31T09:28:18;22.90;99.90
13446;DHT22;6795;51.232;3.764;2023-08-31T09:30:49;23.10;99.90
13446;DHT22;6795;51.232;3.764;2023-08-31T09:33:19;23.00;99.90
13446;DHT22;6795;51.232;3.764;2023-08-31T09:35:52;22.80;99.90
13446;DHT22;6795;51.232;3.764;2023-08-31T09:38:20;22.30;99.90
13446;DHT22;6795;51.232;3.764;2023-08-31T09:40:49;21.90;99.90
13446;DHT22;6795;51.232;3.764;2023-08-31T09:43:21;22.10;99.90
13446;DHT22;6795;51.232;3.764;2023-08-31T09:45:51;22.70;99.90
13446;DHT22;6795;51.232;3.764;2023-08-31T09:48:22;22.50;99.90
13446;DHT22;6795;51.232;3.764;2023-08-31T09:50:55;22.70;99.90
13446;DHT22;6795;51.232;3.764;2023-08-31T09:53:24;23.00;99.90
13446;DHT22;6795;51.232;3.764;2023-08-31T09:55:57;23.50;99.90
13446;DHT22;6795;51.232;3.764;2023-08-31T09:58:26;23.80;99.90
13446;DHT22;6795;51.232;3.764;2023-08-31T10:00:57;23.40;99.90
13446;DHT22;6795;51.232;3.764;2023-08-31T10:03:27;22.90;99.90
13446;DHT22;6795;51.232;3.764;2023-08-31T10:05:57;22.70;99.90
13446;DHT22;6795;51.232;3.764;2023-08-31T10:08:27;22.60;99.90
13446;DHT22;6795;51.232;3.764;2023-08-31T10:10:59;22.90;99.90
13446;DHT22;6795;51.232;3.764;2023-08-31T10:13:31;23.30;99.90
13446;DHT22;6795;51.232;3.764;2023-08-31T10:16:04;23.20;99.90
13446;DHT22;6795;51.232;3.764;2023-08-31T10:18:34;23.40;99.90
13446;DHT22;6795;51.232;3.764;2023-08-31T10:21:05;23.30;99.90
13446;DHT22;6795;51.232;3.764;2023-08-31T10:23:33;23.00;99.90
13446;DHT22;6795;51.232;3.764;2023-08-31T10:26:05;22.10;99.90
13446;DHT22;6795;51.232;3.764;2023-08-31T10:28:42;21.80;99.90
13446;DHT22;6795;51.232;3.764;2023-08-31T10:31:15;21.80;99.90
13446;DHT22;6795;51.232;3.764;2023-08-31T10:33:45;21.70;99.90
13446;DHT22;6795;51.232;3.764;2023-08-31T10:36:15;21.80;99.90
13446;DHT22;6795;51.232;3.764;2023-08-31T10:38:46;22.20;99.90
13446;DHT22;6795;51.232;3.764;2023-08-31T10:41:20;22.60;99.90
13446;DHT22;6795;51.232;3.764;2023-08-31T10:43:50;22.80;99.90
13446;DHT22;6795;51.232;3.764;2023-08-31T10:46:30;22.60;99.90
13446;DHT22;6795;51.232;3.764;2023-08-31T10:49:00;22.20;99.90
13446;DHT22;6795;51.232;3.764;2023-08-31T10:51:32;21.70;99.90
13446;DHT22;6795;51.232;3.764;2023-08-31T10:54:11;21.80;99.90
13446;DHT22;6795;51.232;3.764;2023-08-31T10:57:02;21.90;99.90
13446;DHT22;6795;51.232;3.764;2023-08-31T10:59:47;22.30;99.90
13446;DHT22;6795;51.232;3.764;2023-08-31T11:02:31;23.10;99.90
13446;DHT22;6795;51.232;3.764;2023-08-31T11:05:06;23.20;99.90
13446;DHT22;6795;51.232;3.764;2023-08-31T11:07:37;23.20;99.90
13446;DHT22;6795;51.232;3.764;2023-08-31T11:10:14;23.10;99.90
13446;DHT22;6795;51.232;3.764;2023-08-31T11:12:45;22.70;99.90
13446;DHT22;6795;51.232;3.764;2023-08-31T11:15:14;22.20;99.90
13446;DHT22;6795;51.232;3.764;2023-08-31T11:17:43;22.00;99.90
13446;DHT22;6795;51.232;3.764;2023-08-31T11:20:15;21.80;99.90
13446;DHT22;6795;51.232;3.764;2023-08-31T11:22:48;21.50;99.90
13446;DHT22;6795;51.232;3.764;2023-08-31T11:25:18;21.50;99.90
13446;DHT22;6795;51.232;3.764;2023-08-31T11:27:53;21.50;99.90
13446;DHT22;6795;51.232;3.764;2023-08-31T11:30:22;21.60;99.90
13446;DHT22;6795;51.232;3.764;2023-08-31T11:32:53;21.50;99.90
13446;DHT22;6795;51.232;3.764;2023-08-31T11:35:22;21.40;99.90
13446;DHT22;6795;51.232;3.764;2023-08-31T11:37:56;21.10;99.90
13446;DHT22;6795;51.232;3.764;2023-08-31T11:40:26;21.00;99.90
13446;DHT22;6795;51.232;3.764;2023-08-31T11:42:55;21.00;99.90
13446;DHT22;6795;51.232;3.764;2023-08-31T11:45:24;21.10;99.90
13446;DHT22;6795;51.232;3.764;2023-08-31T11:47:53;21.20;99.90
13446;DHT22;6795;51.232;3.764;2023-08-31T11:50:23;21.40;99.90
13446;DHT22;6795;51.232;3.764;2023-08-31T11:52:54;21.40;99.90
13446;DHT22;6795;51.232;3.764;2023-08-31T11:55:22;21.40;99.90
13446;DHT22;6795;51.232;3.764;2023-08-31T11:57:51;21.50;99.90
13446;DHT22;6795;51.232;3.764;2023-08-31T12:00:22;21.80;99.90
13446;DHT22;6795;51.232;3.764;2023-08-31T12:02:57;22.20;99.90
13446;DHT22;6795;51.232;3.764;2023-08-31T12:05:26;22.90;99.90
13446;DHT22;6795;51.232;3.764;2023-08-31T12:07:56;23.40;99.90
13446;DHT22;6795;51.232;3.764;2023-08-31T12:10:25;23.60;99.90
13446;DHT22;6795;51.232;3.764;2023-08-31T12:12:56;23.30;99.90
13446;DHT22;6795;51.232;3.764;2023-08-31T12:15:35;22.90;99.90
13446;DHT22;6795;51.232;3.764;2023-08-31T12:18:07;22.80;99.90
13446;DHT22;6795;51.232;3.764;2023-08-31T12:20:43;22.70;99.90
13446;DHT22;6795;51.232;3.764;2023-08-31T12:23:13;22.70;99.90
13446;DHT22;6795;51.232;3.764;2023-08-31T12:25:47;22.40;99.90
13446;DHT22;6795;51.232;3.764;2023-08-31T12:28:16;22.10;99.90
13446;DHT22;6795;51.232;3.764;2023-08-31T12:30:47;21.90;99.90
13446;DHT22;6795;51.232;3.764;2023-08-31T12:33:16;21.90;99.90
13446;DHT22;6795;51.232;3.764;2023-08-31T12:35:46;21.90;99.90
13446;DHT22;6795;51.232;3.764;2023-08-31T12:38:16;22.00;99.90
13446;DHT22;6795;51.232;3.764;2023-08-31T12:40:45;21.80;99.90
13446;DHT22;6795;51.232;3.764;2023-08-31T12:43:13;21.70;99.90
13446;DHT22;6795;51.232;3.764;2023-08-31T12:45:43;21.50;99.90
13446;DHT22;6795;51.232;3.764;2023-08-31T12:48:12;21.20;99.90
13446;DHT22;6795;51.232;3.764;2023-08-31T12:50:41;21.20;99.90
13446;DHT22;6795;51.232;3.764;2023-08-31T12:53:09;21.30;99.90
13446;DHT22;6795;51.232;3.764;2023-08-31T12:55:40;21.10;99.90
13446;DHT22;6795;51.232;3.764;2023-08-31T12:58:08;21.10;99.90
13446;DHT22;6795;51.232;3.764;2023-08-31T13:00:37;21.10;99.90
13446;DHT22;6795;51.232;3.764;2023-08-31T13:03:06;21.20;99.90
13446;DHT22;6795;51.232;3.764;2023-08-31T13:05:38;21.20;99.90
13446;DHT22;6795;51.232;3.764;2023-08-31T13:08:07;21.20;99.90
13446;DHT22;6795;51.232;3.764;2023-08-31T13:10:36;21.40;99.90
13446;DHT22;6795;51.232;3.764;2023-08-31T13:13:05;21.50;99.90
13446;DHT22;6795;51.232;3.764;2023-08-31T13:15:34;21.60;99.90
13446;DHT22;6795;51.232;3.764;2023-08-31T13:18:04;21.90;99.90
13446;DHT22;6795;51.232;3.764;2023-08-31T13:20:32;22.50;99.90
13446;DHT22;6795;51.232;3.764;2023-08-31T13:23:01;22.80;99.90
13446;DHT22;6795;51.232;3.764;2023-08-31T13:25:31;22.90;99.90
13446;DHT22;6795;51.232;3.764;2023-08-31T13:27:59;23.00;99.90
13446;DHT22;6795;51.232;3.764;2023-08-31T13:30:29;23.00;99.90
13446;DHT22;6795;51.232;3.764;2023-08-31T13:33:00;22.90;99.90
13446;DHT22;6795;51.232;3.764;2023-08-31T13:35:28;22.80;99.90
13446;DHT22;6795;51.232;3.764;2023-08-31T13:37:57;22.70;99.90
13446;DHT22;6795;51.232;3.764;2023-08-31T13:40:25;22.40;99.90
13446;DHT22;6795;51.232;3.764;2023-08-31T13:42:55;22.30;99.90
13446;DHT22;6795;51.232;3.764;2023-08-31T13:45:26;22.20;99.90
13446;DHT22;6795;51.232;3.764;2023-08-31T13:47:56;22.00;99.90
13446;DHT22;6795;51.232;3.764;2023-08-31T13:50:27;22.00;99.90
13446;DHT22;6795;51.232;3.764;2023-08-31T13:52:55;21.80;99.90
13446;DHT22;6795;51.232;3.764;2023-08-31T13:55:25;21.60;99.90
13446;DHT22;6795;51.232;3.764;2023-08-31T13:57:54;21.40;99.90
13446;DHT22;6795;51.232;3.764;2023-08-31T14:00:22;21.30;99.90
13446;DHT22;6795;51.232;3.764;2023-08-31T14:02:51;21.20;99.90
13446;DHT22;6795;51.232;3.764;2023-08-31T14:05:21;20.90;99.90
13446;DHT22;6795;51.232;3.764;2023-08-31T14:07:50;20.80;99.90
13446;DHT22;6795;51.232;3.764;2023-08-31T14:10:18;20.70;99.90
13446;DHT22;6795;51.232;3.764;2023-08-31T14:12:47;20.50;99.90
13446;DHT22;6795;51.232;3.764;2023-08-31T14:15:15;20.50;99.90
13446;DHT22;6795;51.232;3.764;2023-08-31T14:17:44;20.60;99.90
13446;DHT22;6795;51.232;3.764;2023-08-31T14:20:13;20.60;99.90
13446;DHT22;6795;51.232;3.764;2023-08-31T14:22:42;20.50;99.90
13446;DHT22;6795;51.232;3.764;2023-08-31T14:25:12;20.60;99.90
13446;DHT22;6795;51.232;3.764;2023-08-31T14:27:41;20.60;99.90
13446;DHT22;6795;51.232;3.764;2023-08-31T14:30:10;20.80;99.90
13446;DHT22;6795;51.232;3.764;2023-08-31T14:32:38;20.80;99.90
13446;DHT22;6795;51.232;3.764;2023-08-31T14:35:08;21.00;99.90
13446;DHT22;6795;51.232;3.764;2023-08-31T14:37:37;21.40;99.90
13446;DHT22;6795;51.232;3.764;2023-08-31T14:40:09;21.60;99.90
13446;DHT22;6795;51.232;3.764;2023-08-31T14:42:37;21.90;99.90
13446;DHT22;6795;51.232;3.764;2023-08-31T14:45:07;21.70;99.90
13446;DHT22;6795;51.232;3.764;2023-08-31T14:47:36;21.70;99.90
13446;DHT22;6795;51.232;3.764;2023-08-31T14:50:05;22.00;99.90
13446;DHT22;6795;51.232;3.764;2023-08-31T14:52:34;21.70;99.90
13446;DHT22;6795;51.232;3.764;2023-08-31T14:55:03;21.80;99.90
13446;DHT22;6795;51.232;3.764;2023-08-31T14:57:33;21.80;99.90
13446;DHT22;6795;51.232;3.764;2023-08-31T15:00:02;21.50;99.90
13446;DHT22;6795;51.232;3.764;2023-08-31T15:02:34;21.40;99.90
13446;DHT22;6795;51.232;3.764;2023-08-31T15:05:03;20.90;99.90
13446;DHT22;6795;51.232;3.764;2023-08-31T15:07:32;20.60;99.90
13446;DHT22;6795;51.232;3.764;2023-08-31T15:10:03;20.40;99.90
13446;DHT22;6795;51.232;3.764;2023-08-31T15:12:33;20.10;99.90
13446;DHT22;6795;51.232;3.764;2023-08-31T15:15:04;19.90;99.90
13446;DHT22;6795;51.232;3.764;2023-08-31T15:17:35;19.80;99.90
13446;DHT22;6795;51.232;3.764;2023-08-31T15:20:04;19.50;99.90
13446;DHT22;6795;51.232;3.764;2023-08-31T15:22:35;19.50;99.90
13446;DHT22;6795;51.232;3.764;2023-08-31T15:25:05;19.30;99.90
13446;DHT22;6795;51.232;3.764;2023-08-31T15:27:35;19.40;99.90
13446;DHT22;6795;51.232;3.764;2023-08-31T15:30:04;19.40;99.90
13446;DHT22;6795;51.232;3.764;2023-08-31T15:32:36;19.40;99.90
13446;DHT22;6795;51.232;3.764;2023-08-31T15:35:05;19.40;99.90
13446;DHT22;6795;51.232;3.764;2023-08-31T15:37:34;19.40;99.90
13446;DHT22;6795;51.232;3.764;2023-08-31T15:40:03;19.50;99.90
13446;DHT22;6795;51.232;3.764;2023-08-31T15:42:32;19.70;99.90
13446;DHT22;6795;51.232;3.764;2023-08-31T15:45:03;19.80;99.90
13446;DHT22;6795;51.232;3.764;2023-08-31T15:47:31;19.80;99.90
13446;DHT22;6795;51.232;3.764;2023-08-31T15:50:00;19.60;99.90
13446;DHT22;6795;51.232;3.764;2023-08-31T15:52:29;19.70;99.90
13446;DHT22;6795;51.232;3.764;2023-08-31T15:54:58;19.60;99.90
13446;DHT22;6795;51.232;3.764;2023-08-31T15:57:27;19.60;99.90
13446;DHT22;6795;51.232;3.764;2023-08-31T15:59:58;19.60;99.90
13446;DHT22;6795;51.232;3.764;2023-08-31T16:02:27;19.60;99.90